Time;durP1;ratioP1;P1;durP2;ratioP2;P2;SDS_P1;SDS_P2;PMS_P1;PMS_P2;Temp;Humidity;BMP_temperature;BMP_pressure;BME280_temperature;BME280_humidity;BME280_pressure;Samples;Min_cycle;Max_cycle;Signal;HPM_P1;HPM_P2
2023/09/27 00:01:46;;;;;;;8.50;7.70;;;;;;;;;;5015670;28;20426;-90
2023/09/27 00:04:13;;;;;;;8.83;8.10;;;;;;;;;;5015306;28;20450;-92
2023/09/27 00:06:39;;;;;;;8.10;7.30;;;;;;;;;;5032020;28;20418;-92
2023/09/27 00:09:07;;;;;;;9.00;8.17;;;;;;;;;;5031821;28;20553;-91
2023/09/27 00:11:33;;;;;;;10.73;9.73;;;;;;;;;;5031787;28;20411;-91
2023/09/27 00:13:59;;;;;;;11.97;10.30;;;;;;;;;;5031583;28;20501;-90
2023/09/27 00:16:25;;;;;;;14.00;11.03;;;;;;;;;;5015405;28;20476;-91
2023/09/27 00:18:51;;;;;;;11.10;10.10;;;;;;;;;;5015376;28;20423;-91
2023/09/27 00:21:17;;;;;;;11.30;10.20;;;;;;;;;;5015214;28;20780;-91
2023/09/27 00:23:45;;;;;;;11.10;10.00;;;;;;;;;;5015037;28;20418;-92
2023/09/27 00:26:11;;;;;;;12.27;11.00;;;;;;;;;;5015971;28;20484;-92
2023/09/27 00:28:37;;;;;;;11.30;10.20;;;;;;;;;;5014758;28;20478;-91
2023/09/27 00:31:04;;;;;;;12.33;10.53;;;;;;;;;;5015262;28;20403;-91
2023/09/27 00:33:30;;;;;;;13.30;12.10;;;;;;;;;;5014640;28;20484;-90
2023/09/27 00:35:56;;;;;;;13.90;12.70;;;;;;;;;;5014561;28;20419;-90
2023/09/27 00:38:22;;;;;;;13.20;11.80;;;;;;;;;;5015780;28;20418;-90
2023/09/27 00:40:49;;;;;;;14.63;13.17;;;;;;;;;;5015497;28;20777;-90
2023/09/27 00:43:31;;;;;;;14.23;12.83;;;;;;;;;;5013981;28;20433;-90
2023/09/27 00:45:57;;;;;;;14.10;12.80;;;;;;;;;;5018403;28;20450;-88
2023/09/27 00:48:24;;;;;;;13.47;12.07;;;;;;;;;;5017431;28;20501;-88
2023/09/27 00:50:50;;;;;;;15.27;13.87;;;;;;;;;;5017700;28;20555;-90
2023/09/27 00:53:16;;;;;;;14.87;13.33;;;;;;;;;;5017362;28;20976;-89
2023/09/27 00:55:43;;;;;;;13.77;12.37;;;;;;;;;;5017404;28;20421;-90
2023/09/27 00:58:09;;;;;;;14.97;13.60;;;;;;;;;;5017165;28;20477;-90
2023/09/27 01:00:37;;;;;;;15.03;13.60;;;;;;;;;;5017401;28;20501;-89
2023/09/27 01:03:04;;;;;;;14.57;13.17;;;;;;;;;;5017449;28;20794;-89
2023/09/27 01:05:30;;;;;;;14.40;13.10;;;;;;;;;;5017238;28;20442;-91
2023/09/27 01:07:56;;;;;;;12.80;11.50;;;;;;;;;;5017447;28;20799;-90
2023/09/27 01:10:22;;;;;;;14.03;12.73;;;;;;;;;;5034743;28;20415;-89
2023/09/27 01:12:48;;;;;;;13.67;12.37;;;;;;;;;;5034317;28;20409;-89
2023/09/27 01:15:15;;;;;;;15.10;12.43;;;;;;;;;;5017256;28;20431;-90
2023/09/27 01:18:13;;;;;;;15.43;13.70;;;;;;;;;;5016954;28;20425;-89
2023/09/27 01:20:39;;;;;;;13.27;11.97;;;;;;;;;;4964609;28;20500;-90
2023/09/27 01:23:05;;;;;;;13.67;12.33;;;;;;;;;;5016912;28;20436;-89
2023/09/27 01:25:38;;;;;;;12.27;11.13;;;;;;;;;;5016804;28;20429;-90
2023/09/27 01:28:07;;;;;;;12.40;11.20;;;;;;;;;;5016484;28;20529;-89
2023/09/27 01:30:33;;;;;;;12.83;11.63;;;;;;;;;;5016871;28;20784;-89
2023/09/27 01:33:06;;;;;;;12.50;11.40;;;;;;;;;;5016812;28;20417;-90
2023/09/27 01:35:36;;;;;;;12.77;11.50;;;;;;;;;;5016913;28;20547;-91
2023/09/27 01:38:03;;;;;;;12.30;11.10;;;;;;;;;;5034620;28;20401;-90
2023/09/27 01:40:32;;;;;;;12.23;11.07;;;;;;;;;;5017061;28;20972;-87
2023/09/27 01:42:58;;;;;;;13.07;11.40;;;;;;;;;;5016575;28;20421;-89
2023/09/27 01:45:25;;;;;;;13.20;12.00;;;;;;;;;;5017218;28;20445;-90
2023/09/27 01:47:52;;;;;;;12.20;10.93;;;;;;;;;;5016623;28;20884;-90
2023/09/27 01:50:23;;;;;;;12.30;11.10;;;;;;;;;;5016772;28;20425;-89
2023/09/27 01:52:49;;;;;;;11.43;10.43;;;;;;;;;;5034377;28;20429;-89
2023/09/27 01:55:15;;;;;;;11.67;10.47;;;;;;;;;;5016584;28;20464;-90
2023/09/27 01:57:41;;;;;;;10.60;9.60;;;;;;;;;;5016451;28;20417;-90
2023/09/27 02:00:11;;;;;;;11.53;10.53;;;;;;;;;;5016546;28;20512;-89
2023/09/27 02:02:40;;;;;;;10.53;9.53;;;;;;;;;;5034275;28;20437;-90
2023/09/27 02:05:06;;;;;;;10.97;10.07;;;;;;;;;;5016181;28;20405;-90
2023/09/27 02:07:32;;;;;;;13.60;12.30;;;;;;;;;;5016507;28;20452;-90
2023/09/27 02:09:58;;;;;;;12.83;11.60;;;;;;;;;;5017138;28;20459;-92
2023/09/27 02:12:24;;;;;;;12.90;11.70;;;;;;;;;;5018062;28;20421;-92
2023/09/27 02:14:50;;;;;;;12.40;11.20;;;;;;;;;;5017200;28;20995;-93
2023/09/27 02:17:16;;;;;;;14.37;12.97;;;;;;;;;;5018832;28;20452;-92
2023/09/27 02:19:42;;;;;;;13.63;12.40;;;;;;;;;;5018537;28;20452;-92
2023/09/27 02:22:08;;;;;;;14.33;12.93;;;;;;;;;;5016801;28;20431;-92
2023/09/27 02:24:34;;;;;;;10.17;9.20;;;;;;;;;;5016740;28;20428;-92
2023/09/27 02:27:00;;;;;;;10.33;9.30;;;;;;;;;;5016781;28;20420;-92
2023/09/27 02:29:26;;;;;;;10.93;9.83;;;;;;;;;;5016253;28;20483;-92
2023/09/27 02:31:52;;;;;;;10.30;9.40;;;;;;;;;;5017146;28;20409;-92
2023/09/27 02:34:18;;;;;;;13.20;12.00;;;;;;;;;;5016703;28;20444;-92
2023/09/27 02:37:27;;;;;;;;;;;;;;;;;;;;;
2023/09/27 02:40:11;;;;;;;11.40;10.40;;;;;;;;;;5035025;28;20429;-93
2023/09/27 02:42:39;;;;;;;10.63;9.60;;;;;;;;;;5018088;28;20416;-93
2023/09/27 02:45:15;;;;;;;10.50;9.40;;;;;;;;;;5021591;28;20433;-93
2023/09/27 02:47:48;;;;;;;10.60;9.70;;;;;;;;;;5013314;28;20477;-93
2023/09/27 02:50:19;;;;;;;10.40;9.53;;;;;;;;;;5013615;28;20429;-93
2023/09/27 02:52:49;;;;;;;9.50;8.60;;;;;;;;;;5013562;28;20460;-94
2023/09/27 02:55:45;;;;;;;11.17;9.77;;;;;;;;;;5013585;28;20437;-93
2023/09/27 02:58:31;;;;;;;10.00;9.10;;;;;;;;;;5012977;28;20402;-94
2023/09/27 03:01:05;;;;;;;10.53;9.53;;;;;;;;;;5013675;28;20475;-93
2023/09/27 03:03:44;;;;;;;10.33;9.23;;;;;;;;;;5013580;28;20784;-94
2023/09/27 03:06:19;;;;;;;9.93;9.00;;;;;;;;;;5013358;28;20764;-93
2023/09/27 03:08:51;;;;;;;12.33;11.23;;;;;;;;;;5013428;28;20825;-94
2023/09/27 03:11:17;;;;;;;9.63;8.83;;;;;;;;;;5013509;28;20413;-93
2023/09/27 03:13:44;;;;;;;11.40;10.27;;;;;;;;;;5012587;28;20937;-92
2023/09/27 03:16:10;;;;;;;10.80;9.80;;;;;;;;;;5014552;28;20919;-92
2023/09/27 03:18:37;;;;;;;11.13;10.03;;;;;;;;;;5016872;28;20484;-93
2023/09/27 03:21:03;;;;;;;10.30;9.30;;;;;;;;;;5016923;28;20507;-90
2023/09/27 03:23:29;;;;;;;10.47;9.47;;;;;;;;;;5016595;28;20428;-91
2023/09/27 03:25:56;;;;;;;10.37;9.30;;;;;;;;;;5016541;28;20454;-91
2023/09/27 03:28:22;;;;;;;10.10;9.20;;;;;;;;;;5016105;28;20482;-93
2023/09/27 03:30:48;;;;;;;10.27;9.23;;;;;;;;;;5016257;28;20519;-92
2023/09/27 03:33:14;;;;;;;9.00;8.20;;;;;;;;;;5016338;28;20468;-91
2023/09/27 03:35:41;;;;;;;10.83;8.47;;;;;;;;;;5016208;28;20484;-89
2023/09/27 03:38:07;;;;;;;9.83;8.93;;;;;;;;;;5017304;28;20417;-91
2023/09/27 03:40:33;;;;;;;10.90;9.80;;;;;;;;;;5016123;28;20508;-92
2023/09/27 03:42:58;;;;;;;10.17;9.30;;;;;;;;;;5015791;28;20428;-92
2023/09/27 03:45:25;;;;;;;11.23;10.20;;;;;;;;;;5015994;28;20413;-92
2023/09/27 03:47:51;;;;;;;10.63;9.63;;;;;;;;;;5019055;28;20486;-91
2023/09/27 03:50:17;;;;;;;8.60;7.80;;;;;;;;;;5019131;28;20933;-88
2023/09/27 03:52:43;;;;;;;9.10;8.30;;;;;;;;;;5036601;28;20959;-89
2023/09/27 03:55:09;;;;;;;8.67;7.77;;;;;;;;;;5018841;28;20426;-87
2023/09/27 03:57:35;;;;;;;8.87;7.17;;;;;;;;;;5018556;28;20451;-90
2023/09/27 04:00:06;;;;;;;9.50;8.50;;;;;;;;;;5036304;28;20502;-88
2023/09/27 04:02:32;;;;;;;9.57;8.67;;;;;;;;;;5018936;28;20419;-90
2023/09/27 04:04:58;;;;;;;9.30;8.40;;;;;;;;;;5018884;28;20450;-90
2023/09/27 04:07:24;;;;;;;8.47;7.47;;;;;;;;;;5018653;28;20446;-89
2023/09/27 04:09:50;;;;;;;8.77;7.97;;;;;;;;;;5036371;28;20412;-88
2023/09/27 04:12:16;;;;;;;9.20;8.03;;;;;;;;;;5018396;28;20441;-90
2023/09/27 04:14:42;;;;;;;9.20;8.30;;;;;;;;;;5018567;28;20431;-89
2023/09/27 04:17:08;;;;;;;7.67;6.97;;;;;;;;;;5018375;28;20419;-90
2023/09/27 04:19:34;;;;;;;8.43;7.10;;;;;;;;;;5018367;28;20426;-90
2023/09/27 04:22:00;;;;;;;10.33;8.07;;;;;;;;;;5018640;28;20808;-89
2023/09/27 04:24:56;;;;;;;8.70;7.90;;;;;;;;;;5018301;28;20468;-91
2023/09/27 04:27:22;;;;;;;9.30;8.50;;;;;;;;;;5018528;28;20444;-93
2023/09/27 04:29:50;;;;;;;8.10;7.40;;;;;;;;;;5019178;28;20434;-92
2023/09/27 04:32:18;;;;;;;8.37;7.60;;;;;;;;;;5018982;28;20573;-91
2023/09/27 04:34:44;;;;;;;8.50;7.70;;;;;;;;;;5019679;28;20521;-93
2023/09/27 04:37:13;;;;;;;8.97;8.07;;;;;;;;;;5034915;28;20407;-93
2023/09/27 04:39:41;;;;;;;8.90;8.10;;;;;;;;;;5027436;28;20934;-93
2023/09/27 04:42:07;;;;;;;9.00;7.97;;;;;;;;;;5026646;28;20834;-89
2023/09/27 04:44:33;;;;;;;8.53;7.80;;;;;;;;;;5025556;28;20419;-91
2023/09/27 04:46:59;;;;;;;7.77;6.97;;;;;;;;;;5014666;28;20460;-90
2023/09/27 04:49:25;;;;;;;10.80;9.70;;;;;;;;;;5014914;28;20470;-91
2023/09/27 04:51:51;;;;;;;12.83;11.63;;;;;;;;;;5014870;28;20423;-91
2023/09/27 04:54:17;;;;;;;13.40;12.07;;;;;;;;;;5014797;28;20776;-91
2023/09/27 04:56:43;;;;;;;13.70;12.07;;;;;;;;;;5014795;28;20864;-90
2023/09/27 04:59:09;;;;;;;14.30;13.00;;;;;;;;;;5014444;28;20524;-91
2023/09/27 05:01:35;;;;;;;15.27;13.77;;;;;;;;;;5020478;28;20465;-90
2023/09/27 05:04:01;;;;;;;15.83;14.10;;;;;;;;;;5014798;28;20459;-91
2023/09/27 05:06:27;;;;;;;15.13;13.80;;;;;;;;;;5016185;28;20420;-91
2023/09/27 05:08:53;;;;;;;13.73;12.33;;;;;;;;;;5014804;28;20501;-92
2023/09/27 05:11:19;;;;;;;15.67;14.07;;;;;;;;;;5013890;28;20420;-92
2023/09/27 05:13:48;;;;;;;17.53;15.77;;;;;;;;;;5014757;28;20425;-92
2023/09/27 05:16:14;;;;;;;15.57;13.77;;;;;;;;;;5015875;28;20413;-92
2023/09/27 05:18:41;;;;;;;14.80;13.30;;;;;;;;;;5016390;28;20429;-92
2023/09/27 05:21:07;;;;;;;15.60;13.90;;;;;;;;;;5015463;28;20416;-92
2023/09/27 05:23:35;;;;;;;14.47;13.07;;;;;;;;;;5015083;28;20513;-91
2023/09/27 05:26:01;;;;;;;14.93;13.53;;;;;;;;;;5018473;28;20429;-93
2023/09/27 05:28:28;;;;;;;17.83;12.60;;;;;;;;;;5018343;28;20567;-93
2023/09/27 05:30:54;;;;;;;14.07;12.70;;;;;;;;;;5019512;28;20441;-92
2023/09/27 05:33:20;;;;;;;14.63;12.00;;;;;;;;;;5016605;28;20526;-92
2023/09/27 05:35:50;;;;;;;15.20;13.20;;;;;;;;;;5017080;28;20449;-93
2023/09/27 05:38:16;;;;;;;13.50;12.13;;;;;;;;;;5016348;28;20428;-93
2023/09/27 05:40:42;;;;;;;14.60;13.20;;;;;;;;;;5001878;28;20936;-92
2023/09/27 05:43:10;;;;;;;15.80;14.00;;;;;;;;;;4998796;28;20445;-91
2023/09/27 05:45:46;;;;;;;14.43;12.57;;;;;;;;;;5001002;28;20432;-92
2023/09/27 05:48:14;;;;;;;14.73;13.13;;;;;;;;;;4998126;28;20921;-91
2023/09/27 05:50:44;;;;;;;13.30;12.10;;;;;;;;;;5014957;28;20412;-89
2023/09/27 05:53:11;;;;;;;13.83;12.47;;;;;;;;;;4997139;28;20735;-91
2023/09/27 05:55:37;;;;;;;14.37;12.43;;;;;;;;;;4997425;28;20458;-88
2023/09/27 05:58:04;;;;;;;13.57;12.37;;;;;;;;;;4997837;28;20413;-92
2023/09/27 06:00:37;;;;;;;14.50;13.10;;;;;;;;;;4997790;28;20416;-90
2023/09/27 06:03:04;;;;;;;15.07;13.60;;;;;;;;;;5017142;28;20412;-91
2023/09/27 06:05:30;;;;;;;15.67;13.80;;;;;;;;;;5018768;28;20416;-92
2023/09/27 06:07:56;;;;;;;13.20;11.90;;;;;;;;;;5016781;28;20467;-89
2023/09/27 06:10:22;;;;;;;16.10;13.20;;;;;;;;;;5017366;28;20523;-93
2023/09/27 06:12:53;;;;;;;13.47;12.20;;;;;;;;;;5018505;28;20445;-92
2023/09/27 06:15:22;;;;;;;13.33;12.07;;;;;;;;;;5019985;28;20453;-94
2023/09/27 06:17:48;;;;;;;13.07;11.70;;;;;;;;;;5016948;28;20953;-92
2023/09/27 06:20:22;;;;;;;13.03;11.40;;;;;;;;;;5018878;28;20466;-92
2023/09/27 06:22:48;;;;;;;15.33;12.00;;;;;;;;;;4998539;28;20471;-92
2023/09/27 06:25:15;;;;;;;13.80;12.27;;;;;;;;;;4997022;28;20414;-91
2023/09/27 06:27:41;;;;;;;14.30;12.90;;;;;;;;;;4996386;28;20456;-90
2023/09/27 06:30:07;;;;;;;13.57;12.20;;;;;;;;;;4997031;28;20414;-91
2023/09/27 06:32:35;;;;;;;13.40;12.20;;;;;;;;;;4996799;28;20413;-87
2023/09/27 06:35:10;;;;;;;12.90;11.57;;;;;;;;;;4996714;28;20418;-91
2023/09/27 06:37:36;;;;;;;10.30;9.40;;;;;;;;;;4997200;28;20415;-91
2023/09/27 06:40:09;;;;;;;9.50;8.60;;;;;;;;;;5002545;28;20487;-93
2023/09/27 06:43:02;;;;;;;9.07;8.30;;;;;;;;;;5016821;28;20796;-93
2023/09/27 06:45:43;;;;;;;8.70;7.90;;;;;;;;;;5030442;28;20408;-93
2023/09/27 06:48:10;;;;;;;8.20;7.50;;;;;;;;;;5037951;28;20472;-92
2023/09/27 07:08:52;;;;;;;8.60;7.80;;;;;;;;;;5057704;28;20488;-92
2023/09/27 07:11:21;;;;;;;7.40;6.80;;;;;;;;;;5054166;28;20413;-92
2023/09/27 07:13:52;;;;;;;12.17;6.97;;;;;;;;;;5039320;28;20514;-91
2023/09/27 07:16:41;;;;;;;8.30;6.53;;;;;;;;;;5041833;28;20929;-90
2023/09/27 07:19:15;;;;;;;6.80;5.93;;;;;;;;;;5038696;28;20415;-93
2023/09/27 07:22:03;;;;;;;;;;;;;;;;;;;;;
2023/09/27 07:25:03;;;;;;;;;;;;;;;;;;;;;
2023/09/27 07:27:55;;;;;;;6.37;5.77;;;;;;;;;;5039062;28;20409;-93
2023/09/27 07:30:24;;;;;;;7.93;7.23;;;;;;;;;;5043412;28;20428;-91
2023/09/27 07:33:31;;;;;;;;;;;;;;;;;;;;;
2023/09/27 07:35:58;;;;;;;6.50;5.90;;;;;;;;;;5036811;28;20518;-92
2023/09/27 07:38:27;;;;;;;6.20;5.63;;;;;;;;;;5037646;28;20405;-93
2023/09/27 07:40:53;;;;;;;4.67;4.27;;;;;;;;;;5053553;28;20423;-86
2023/09/27 07:43:19;;;;;;;6.60;6.13;;;;;;;;;;5055191;28;20401;-88
2023/09/27 07:45:46;;;;;;;6.00;5.50;;;;;;;;;;5055858;28;20170;-85
2023/09/27 07:48:12;;;;;;;5.90;5.27;;;;;;;;;;5055273;28;20247;-86
2023/09/27 07:50:39;;;;;;;5.57;5.13;;;;;;;;;;5055322;28;20767;-86
2023/09/27 07:53:08;;;;;;;5.63;4.87;;;;;;;;;;5053987;28;20201;-86
2023/09/27 07:55:46;;;;;;;5.60;5.20;;;;;;;;;;5055244;28;20404;-87
2023/09/27 07:58:13;;;;;;;5.53;5.13;;;;;;;;;;5054878;28;20412;-86
2023/09/27 08:00:43;;;;;;;5.20;4.80;;;;;;;;;;5055061;28;20415;-86
2023/09/27 08:03:10;;;;;;;5.33;4.83;;;;;;;;;;5054581;28;20424;-87
2023/09/27 08:05:42;;;;;;;5.60;5.20;;;;;;;;;;5054966;28;20932;-87
2023/09/27 08:08:09;;;;;;;4.87;4.57;;;;;;;;;;5069880;28;20479;-85
2023/09/27 08:10:35;;;;;;;5.37;4.93;;;;;;;;;;5075076;28;20899;-86
2023/09/27 08:13:01;;;;;;;5.57;5.07;;;;;;;;;;5074234;28;20422;-85
2023/09/27 08:15:28;;;;;;;4.63;4.33;;;;;;;;;;5074067;28;20403;-85
2023/09/27 08:17:57;;;;;;;5.27;4.77;;;;;;;;;;5075857;28;20407;-86
2023/09/27 08:20:23;;;;;;;4.90;4.50;;;;;;;;;;5056878;28;20987;-90
2023/09/27 08:22:49;;;;;;;7.73;5.07;;;;;;;;;;5074722;28;20415;-90
2023/09/27 08:25:15;;;;;;;4.63;4.23;;;;;;;;;;5056963;28;20419;-92
2023/09/27 08:27:44;;;;;;;4.53;4.30;;;;;;;;;;5053582;28;20469;-90
2023/09/27 08:30:11;;;;;;;5.00;4.60;;;;;;;;;;5046771;28;20447;-89
2023/09/27 08:32:38;;;;;;;8.63;5.30;;;;;;;;;;5056423;28;20449;-88
2023/09/27 08:35:05;;;;;;;6.23;5.57;;;;;;;;;;5075283;28;20918;-87
2023/09/27 08:37:31;;;;;;;5.00;4.60;;;;;;;;;;5073979;28;20414;-88
2023/09/27 08:39:57;;;;;;;5.43;5.07;;;;;;;;;;5073684;28;20439;-88
2023/09/27 08:42:24;;;;;;;4.27;3.97;;;;;;;;;;5075076;28;20396;-86
2023/09/27 08:44:53;;;;;;;5.87;5.20;;;;;;;;;;5083250;28;20188;-85
2023/09/27 08:47:24;;;;;;;5.43;5.13;;;;;;;;;;5069546;28;20407;-89
2023/09/27 08:49:51;;;;;;;5.40;4.97;;;;;;;;;;5082046;28;20557;-84
2023/09/27 08:52:17;;;;;;;6.60;6.00;;;;;;;;;;5079599;28;20826;-90
2023/09/27 08:54:43;;;;;;;6.50;5.90;;;;;;;;;;5073835;28;20502;-87
2023/09/27 08:57:10;;;;;;;6.87;6.47;;;;;;;;;;5082159;28;20954;-91
2023/09/27 08:59:36;;;;;;;6.07;5.60;;;;;;;;;;5084406;28;20185;-94
2023/09/27 09:02:09;;;;;;;5.80;5.30;;;;;;;;;;5075006;28;20521;-89
2023/09/27 09:04:36;;;;;;;6.10;4.83;;;;;;;;;;5075065;28;20434;-93
2023/09/27 09:07:03;;;;;;;5.60;5.20;;;;;;;;;;5074229;28;20449;-89
2023/09/27 09:09:30;;;;;;;6.50;4.90;;;;;;;;;;5074097;28;20957;-92
2023/09/27 09:11:58;;;;;;;7.53;5.70;;;;;;;;;;5073093;28;20438;-91
2023/09/27 09:14:43;;;;;;;5.70;5.20;;;;;;;;;;5074945;28;20426;-90
2023/09/27 09:17:19;;;;;;;5.10;4.80;;;;;;;;;;5058426;28;20824;-90
2023/09/27 09:20:15;;;;;;;5.20;4.87;;;;;;;;;;5059486;28;20411;-94
2023/09/27 09:22:44;;;;;;;6.40;5.80;;;;;;;;;;5058343;28;20439;-91
2023/09/27 09:25:10;;;;;;;7.50;5.77;;;;;;;;;;5075498;28;20416;-92
2023/09/27 09:27:37;;;;;;;5.67;5.17;;;;;;;;;;5058422;28;20514;-88
2023/09/27 09:30:06;;;;;;;6.10;5.60;;;;;;;;;;5076841;28;20442;-94
2023/09/27 09:32:33;;;;;;;5.33;4.93;;;;;;;;;;5058038;28;20502;-91
2023/09/27 09:34:59;;;;;;;5.50;5.00;;;;;;;;;;5059258;28;20415;-92
2023/09/27 09:37:28;;;;;;;5.87;4.70;;;;;;;;;;5076927;28;20490;-91
2023/09/27 09:40:10;;;;;;;5.57;5.20;;;;;;;;;;5057918;28;20451;-94
2023/09/27 09:42:38;;;;;;;5.70;5.30;;;;;;;;;;5057912;28;20399;-91
2023/09/27 09:45:06;;;;;;;5.80;5.00;;;;;;;;;;5057272;28;20904;-93
2023/09/27 09:47:35;;;;;;;5.23;4.93;;;;;;;;;;5058348;28;20581;-94
2023/09/27 09:50:01;;;;;;;4.97;4.67;;;;;;;;;;5057799;28;20484;-92
2023/09/27 09:52:28;;;;;;;5.20;4.77;;;;;;;;;;5057493;28;20505;-94
2023/09/27 09:54:57;;;;;;;8.10;6.37;;;;;;;;;;5057557;28;20711;-89
2023/09/27 09:57:27;;;;;;;6.50;6.10;;;;;;;;;;5074156;28;20399;-93
2023/09/27 09:59:53;;;;;;;6.03;5.53;;;;;;;;;;5057026;28;20506;-93
2023/09/27 10:02:23;;;;;;;5.60;5.20;;;;;;;;;;5057039;28;20470;-94
2023/09/27 10:04:55;;;;;;;6.33;5.20;;;;;;;;;;5074592;28;20400;-93
2023/09/27 10:07:21;;;;;;;4.57;4.27;;;;;;;;;;5074296;28;20509;-90
2023/09/27 10:09:48;;;;;;;4.63;4.23;;;;;;;;;;5056558;28;20561;-92
2023/09/27 10:12:14;;;;;;;5.53;5.13;;;;;;;;;;5056692;28;20924;-93
2023/09/27 10:14:41;;;;;;;5.53;5.10;;;;;;;;;;5056467;28;20427;-91
2023/09/27 10:17:19;;;;;;;4.67;4.27;;;;;;;;;;5056840;28;20450;-91
2023/09/27 10:20:04;;;;;;;5.23;4.73;;;;;;;;;;5056814;28;20773;-93
2023/09/27 10:22:30;;;;;;;5.07;4.27;;;;;;;;;;5056514;28;20934;-92
2023/09/27 10:24:56;;;;;;;4.37;3.97;;;;;;;;;;5059219;28;20427;-91
2023/09/27 10:27:22;;;;;;;6.10;4.43;;;;;;;;;;5062568;28;20526;-91
2023/09/27 10:29:58;;;;;;;5.37;4.87;;;;;;;;;;5062471;28;20470;-90
2023/09/27 10:32:24;;;;;;;6.07;5.53;;;;;;;;;;5062167;28;20406;-93
2023/09/27 10:34:51;;;;;;;5.27;4.87;;;;;;;;;;5064013;28;20487;-93
2023/09/27 10:37:37;;;;;;;5.53;4.80;;;;;;;;;;5063158;28;20399;-92
2023/09/27 10:40:22;;;;;;;4.93;4.43;;;;;;;;;;5063399;28;20411;-91
2023/09/27 10:42:48;;;;;;;6.90;5.50;;;;;;;;;;5059786;28;20525;-88
2023/09/27 10:45:14;;;;;;;4.73;4.43;;;;;;;;;;5082901;28;20399;-90
2023/09/27 10:47:40;;;;;;;4.73;4.30;;;;;;;;;;5065484;28;20455;-90
2023/09/27 10:50:06;;;;;;;4.70;4.30;;;;;;;;;;5066458;28;20480;-90
2023/09/27 10:52:32;;;;;;;4.80;4.40;;;;;;;;;;5065626;28;20475;-90
2023/09/27 10:55:14;;;;;;;5.10;4.70;;;;;;;;;;5066998;28;20419;-89
2023/09/27 10:57:43;;;;;;;4.33;3.93;;;;;;;;;;5067337;28;20418;-90
2023/09/27 11:00:12;;;;;;;4.03;3.70;;;;;;;;;;5067051;28;20451;-91
2023/09/27 11:02:38;;;;;;;5.27;4.77;;;;;;;;;;5071032;28;20431;-88
2023/09/27 11:05:05;;;;;;;5.37;4.70;;;;;;;;;;5085421;28;20410;-91
2023/09/27 11:07:47;;;;;;;5.53;4.97;;;;;;;;;;5063089;28;20542;-89
2023/09/27 11:10:18;;;;;;;8.23;5.33;;;;;;;;;;5063161;28;20506;-91
2023/09/27 11:12:44;;;;;;;5.23;4.17;;;;;;;;;;5063057;28;20412;-90
2023/09/27 11:15:11;;;;;;;6.03;4.50;;;;;;;;;;5065606;28;20517;-89
2023/09/27 11:17:37;;;;;;;6.80;4.77;;;;;;;;;;5062836;28;20422;-89
2023/09/27 11:20:15;;;;;;;6.20;5.20;;;;;;;;;;5066144;28;20467;-91
2023/09/27 11:22:41;;;;;;;5.07;4.57;;;;;;;;;;5062253;28;20444;-87
2023/09/27 11:25:25;;;;;;;4.93;4.47;;;;;;;;;;5061932;28;20418;-88
2023/09/27 11:27:52;;;;;;;6.43;3.97;;;;;;;;;;5061763;28;20410;-87
2023/09/27 11:30:23;;;;;;;4.60;3.87;;;;;;;;;;5062567;28;20427;-87
2023/09/27 11:32:50;;;;;;;4.90;4.40;;;;;;;;;;5062055;28;20908;-89
2023/09/27 11:35:19;;;;;;;3.80;3.50;;;;;;;;;;5061938;28;20419;-91
2023/09/27 11:37:47;;;;;;;5.00;3.60;;;;;;;;;;5057827;28;20415;-91
2023/09/27 11:40:13;;;;;;;4.67;3.30;;;;;;;;;;5059260;28;20506;-91
2023/09/27 11:42:39;;;;;;;5.20;3.87;;;;;;;;;;5079864;28;20548;-93
2023/09/27 11:45:08;;;;;;;3.63;3.33;;;;;;;;;;5060743;28;20420;-93
2023/09/27 11:47:45;;;;;;;2.53;2.33;;;;;;;;;;5060842;28;20411;-91
2023/09/27 11:50:11;;;;;;;3.83;3.27;;;;;;;;;;5060705;28;20484;-95
2023/09/27 11:52:37;;;;;;;5.93;3.63;;;;;;;;;;5060201;28;20412;-91
2023/09/27 11:55:03;;;;;;;3.10;2.90;;;;;;;;;;5060132;28;20423;-94
2023/09/27 11:57:29;;;;;;;5.80;3.43;;;;;;;;;;5059768;28;20501;-92
2023/09/27 11:59:55;;;;;;;3.20;2.90;;;;;;;;;;5059990;28;20426;-92
2023/09/27 12:02:21;;;;;;;4.80;2.93;;;;;;;;;;5059974;28;20423;-92
2023/09/27 12:04:47;;;;;;;3.43;3.20;;;;;;;;;;5076956;28;20165;-92
2023/09/27 12:07:14;;;;;;;4.00;2.90;;;;;;;;;;5058270;28;20803;-93
2023/09/27 12:09:39;;;;;;;3.67;2.27;;;;;;;;;;5076128;28;20213;-88
2023/09/27 12:12:06;;;;;;;3.57;2.63;;;;;;;;;;5075577;28;20395;-92
2023/09/27 12:14:32;;;;;;;3.97;2.97;;;;;;;;;;5058528;28;20204;-89
2023/09/27 12:16:58;;;;;;;3.20;2.90;;;;;;;;;;5058007;28;20982;-88
2023/09/27 12:19:24;;;;;;;4.53;2.97;;;;;;;;;;5058687;28;20419;-93
2023/09/27 12:21:50;;;;;;;3.60;2.40;;;;;;;;;;5058155;28;20437;-89
2023/09/27 12:24:16;;;;;;;3.63;2.53;;;;;;;;;;5058105;28;20948;-92
2023/09/27 12:26:42;;;;;;;6.73;3.00;;;;;;;;;;5057743;28;20176;-90
2023/09/27 12:29:08;;;;;;;2.80;2.50;;;;;;;;;;5058041;28;20815;-89
2023/09/27 12:31:34;;;;;;;2.83;2.63;;;;;;;;;;5076106;28;21006;-90
2023/09/27 12:34:00;;;;;;;3.40;3.10;;;;;;;;;;5076249;28;20463;-96
2023/09/27 12:36:26;;;;;;;4.03;2.40;;;;;;;;;;5058977;28;20169;-93
2023/09/27 12:38:52;;;;;;;3.07;2.73;;;;;;;;;;5058882;28;20173;-95
2023/09/27 12:41:18;;;;;;;5.83;3.00;;;;;;;;;;5061284;28;20427;-91
2023/09/27 12:43:44;;;;;;;2.83;2.53;;;;;;;;;;5059148;28;20412;-92
2023/09/27 12:46:10;;;;;;;2.77;2.57;;;;;;;;;;5059030;28;20176;-93
2023/09/27 12:48:36;;;;;;;1.73;1.60;;;;;;;;;;5058941;28;20469;-95
2023/09/27 12:51:05;;;;;;;2.63;2.40;;;;;;;;;;5059261;28;20172;-94
2023/09/27 12:53:31;;;;;;;3.27;2.10;;;;;;;;;;5076479;28;20419;-93
2023/09/27 12:55:57;;;;;;;3.43;2.30;;;;;;;;;;5058300;28;20415;-93
2023/09/27 12:58:24;;;;;;;2.90;2.03;;;;;;;;;;5057880;28;20219;-94
2023/09/27 13:00:50;;;;;;;2.37;2.13;;;;;;;;;;5058641;28;20537;-91
2023/09/27 13:03:16;;;;;;;2.97;2.67;;;;;;;;;;5060596;28;20419;-94
2023/09/27 13:05:42;;;;;;;2.90;2.30;;;;;;;;;;5060407;28;20189;-92
2023/09/27 13:08:08;;;;;;;3.03;2.40;;;;;;;;;;5058563;28;20255;-90
2023/09/27 13:10:36;;;;;;;4.10;1.80;;;;;;;;;;5057197;28;20181;-89
2023/09/27 13:13:03;;;;;;;4.97;2.37;;;;;;;;;;5074307;28;20392;-90
2023/09/27 13:15:29;;;;;;;4.23;2.00;;;;;;;;;;5056955;28;20424;-90
2023/09/27 13:17:55;;;;;;;4.13;2.80;;;;;;;;;;5057612;28;20399;-95
2023/09/27 13:20:21;;;;;;;3.10;2.30;;;;;;;;;;5057712;28;20407;-93
2023/09/27 13:22:50;;;;;;;2.00;1.80;;;;;;;;;;5057708;28;20496;-92
2023/09/27 13:25:17;;;;;;;4.13;1.93;;;;;;;;;;5058679;28;20427;-93
2023/09/27 13:27:43;;;;;;;3.63;1.80;;;;;;;;;;5058149;28;20411;-93
2023/09/27 13:30:10;;;;;;;2.90;2.17;;;;;;;;;;5059630;28;20428;-93
2023/09/27 13:32:36;;;;;;;3.63;2.27;;;;;;;;;;5059690;28;20431;-94
2023/09/27 13:35:02;;;;;;;2.43;2.03;;;;;;;;;;5057854;28;20537;-94
2023/09/27 13:37:28;;;;;;;2.43;2.23;;;;;;;;;;5057909;28;20229;-93
2023/09/27 13:39:53;;;;;;;2.50;2.30;;;;;;;;;;5057631;28;20829;-93
2023/09/27 13:42:19;;;;;;;3.43;1.63;;;;;;;;;;5057472;28;20184;-92
2023/09/27 13:44:47;;;;;;;3.30;2.10;;;;;;;;;;5058258;28;20182;-91
2023/09/27 13:47:13;;;;;;;2.90;2.17;;;;;;;;;;5057206;28;20776;-90
2023/09/27 13:49:39;;;;;;;3.53;1.70;;;;;;;;;;5057029;28;20470;-91
2023/09/27 13:52:05;;;;;;;2.23;1.97;;;;;;;;;;5054539;28;20183;-90
2023/09/27 13:54:32;;;;;;;5.43;2.27;;;;;;;;;;5073540;28;20818;-88
2023/09/27 13:57:01;;;;;;;3.20;2.57;;;;;;;;;;5073767;28;20180;-88
2023/09/27 13:59:27;;;;;;;5.50;2.63;;;;;;;;;;5078043;28;20443;-94
2023/09/27 14:01:53;;;;;;;3.67;2.23;;;;;;;;;;5080942;28;20443;-88
2023/09/27 14:04:21;;;;;;;3.10;2.70;;;;;;;;;;5081402;28;20411;-90
2023/09/27 14:06:47;;;;;;;3.30;1.90;;;;;;;;;;5093116;28;20217;-89
2023/09/27 14:09:13;;;;;;;2.83;2.33;;;;;;;;;;5090116;28;20482;-93
2023/09/27 14:11:39;;;;;;;4.97;2.40;;;;;;;;;;5076754;28;20168;-90
2023/09/27 14:14:05;;;;;;;4.37;2.77;;;;;;;;;;5073454;28;20791;-83
2023/09/27 14:16:31;;;;;;;2.10;1.90;;;;;;;;;;5073351;28;20435;-84
2023/09/27 14:18:57;;;;;;;2.67;1.67;;;;;;;;;;5074989;28;20454;-83
2023/09/27 14:21:23;;;;;;;4.20;2.40;;;;;;;;;;5073390;28;20446;-83
2023/09/27 14:23:49;;;;;;;2.90;1.30;;;;;;;;;;5073117;28;20408;-83
2023/09/27 14:26:18;;;;;;;3.13;2.17;;;;;;;;;;5074735;28;21136;-84
2023/09/27 14:28:44;;;;;;;3.07;2.40;;;;;;;;;;5075043;28;20479;-85
2023/09/27 14:31:10;;;;;;;2.50;1.80;;;;;;;;;;5056248;28;20404;-83
2023/09/27 14:33:36;;;;;;;3.03;2.43;;;;;;;;;;5073646;28;20418;-84
2023/09/27 14:36:05;;;;;;;3.50;2.87;;;;;;;;;;5074760;28;20419;-83
2023/09/27 14:38:35;;;;;;;3.40;2.30;;;;;;;;;;5074373;28;20411;-83
2023/09/27 14:41:06;;;;;;;2.90;2.70;;;;;;;;;;5074418;28;20422;-83
2023/09/27 14:43:34;;;;;;;4.87;2.30;;;;;;;;;;5075695;28;20407;-86
2023/09/27 14:46:00;;;;;;;3.57;2.47;;;;;;;;;;5076205;28;20468;-85
2023/09/27 14:48:26;;;;;;;3.03;2.50;;;;;;;;;;5075918;28;20490;-87
2023/09/27 14:50:52;;;;;;;5.27;2.50;;;;;;;;;;5076141;28;20419;-86
2023/09/27 14:53:18;;;;;;;3.70;2.27;;;;;;;;;;5076672;28;20411;-84
2023/09/27 14:55:44;;;;;;;3.47;2.37;;;;;;;;;;5075644;28;20407;-88
2023/09/27 14:58:11;;;;;;;4.13;3.20;;;;;;;;;;5075786;28;20224;-86
2023/09/27 15:00:36;;;;;;;4.47;2.77;;;;;;;;;;5075593;28;20180;-90
2023/09/27 15:03:03;;;;;;;3.47;2.90;;;;;;;;;;5075917;28;20403;-87
2023/09/27 15:05:28;;;;;;;3.43;2.53;;;;;;;;;;5058213;28;20184;-87